To NAV CANADA Home Page Login to a new session Search on AWWS site Feedback and Comments Disclaimer Vers la page française équivalente Tips FAQ What's new on the site To the Forecasts and Observations / NOTAM section To "File a Flight Plan" website Publications and other links Update of the User's profile FIC Telephone Numbers My Weather Data Folder Route Weather Data Regional Weather Data Local Weather Data To the Forecasts and Observations / NOTAM section
Request Generated 03/06/2015 at 15:58:39 UTC . Weather information available at that time is displayed.

METAR/TAF

FREDERICTON/FREDERICTON INTL/NB    (show WxCam)

METAR CYFC 061500Z AUTO 04004KT 360V060 9SM CLR M13/M21 A3038 RMK
SLP290=
METAR CYFC 061400Z AUTO 22005KT 9SM CLR M14/M23 A3039 RMK SLP294=
METAR CYFC 061300Z AUTO 20003KT 9SM CLR M20/M25 A3040 RMK SLP295=

TAF CYFC 061138Z 0612/0624 20005KT P6SM SKC
BECMG 0616/0618 23010KT
RMK FCST BASED ON AUTO OBS. NXT FCST BY 061800Z=
Your time UTC time
Weather data provided by Environment Canada and NAV CANADA